Time;durP1;ratioP1;P1;durP2;ratioP2;P2;SDS_P1;SDS_P2;PMS_P1;PMS_P2;Temp;Humidity;BMP_temperature;BMP_pressure;BME280_temperature;BME280_humidity;BME280_pressure;Samples;Min_cycle;Max_cycle;Signal;HPM_P1;HPM_P2
2022/11/22 00:00:44;;;;;;;19.65;12.37;;;;;;;2.44;83.90;98864.79;1752546;81;21115;-74
2022/11/22 00:03:11;;;;;;;23.87;11.95;;;;;;;2.40;83.87;98873.74;1732552;80;22525;-75
2022/11/22 00:05:38;;;;;;;20.25;10.08;;;;;;;2.39;83.88;98871.61;1713574;82;21054;-76
2022/11/22 00:08:04;;;;;;;27.58;12.05;;;;;;;2.37;83.79;98881.78;1736046;80;20945;-77
2022/11/22 00:10:31;;;;;;;13.30;7.30;;;;;;;2.34;83.79;98882.01;1735409;81;21163;-77
2022/11/22 00:12:58;;;;;;;7.17;4.35;;;;;;;2.30;83.64;98896.53;1727193;82;21017;-78
2022/11/22 00:15:25;;;;;;;6.37;4.20;;;;;;;2.26;83.53;98891.65;1742281;81;21992;-78
2022/11/22 00:17:53;;;;;;;8.25;6.03;;;;;;;2.19;83.33;98891.23;1745146;81;21107;-75
2022/11/22 00:20:19;;;;;;;12.28;7.67;;;;;;;2.13;83.37;98897.34;1720865;80;21087;-75
2022/11/22 00:22:47;;;;;;;7.35;4.53;;;;;;;2.11;83.39;98899.20;1733776;80;21073;-76
2022/11/22 00:25:14;;;;;;;9.75;5.40;;;;;;;2.07;83.25;98898.59;1746483;81;20941;-76
2022/11/22 00:27:43;;;;;;;5.10;3.40;;;;;;;2.01;83.00;98903.73;1749935;81;22009;-77
2022/11/22 00:30:10;;;;;;;4.87;3.05;;;;;;;1.98;82.95;98903.95;1758484;81;20974;-76
2022/11/22 00:32:37;;;;;;;7.97;4.80;;;;;;;1.95;82.76;98913.75;1732479;81;20971;-76
2022/11/22 00:35:04;;;;;;;5.40;3.27;;;;;;;1.92;82.75;98913.93;1754038;80;21001;-76
2022/11/22 00:37:31;;;;;;;6.22;3.87;;;;;;;1.90;82.68;98910.61;1725570;81;21013;-77
2022/11/22 00:39:58;;;;;;;4.50;2.70;;;;;;;1.90;82.68;98919.72;1722863;81;21947;-76
2022/11/22 00:42:25;;;;;;;5.90;4.12;;;;;;;1.89;82.56;98924.56;1748665;81;20933;-76
2022/11/22 00:44:55;;;;;;;4.12;2.90;;;;;;;1.86;82.52;98929.98;1749990;80;21045;-76
2022/11/22 00:47:22;;;;;;;9.80;5.97;;;;;;;1.86;82.51;98934.72;1748553;81;21049;-77
2022/11/22 00:49:49;;;;;;;11.65;6.87;;;;;;;1.87;82.54;98929.88;1731743;81;21023;-78
2022/11/22 00:52:16;;;;;;;7.85;5.30;;;;;;;1.89;82.53;98930.60;1725539;81;22995;-78
2022/11/22 00:54:44;;;;;;;7.67;5.10;;;;;;;1.88;82.47;98942.42;1692030;82;20976;-78
2022/11/22 00:57:14;;;;;;;5.22;4.00;;;;;;;1.86;82.32;98943.00;1742910;81;21056;-78
2022/11/22 00:59:41;;;;;;;3.33;2.83;;;;;;;1.85;82.22;98947.38;1747750;80;21000;-78
2022/11/22 01:02:07;;;;;;;6.30;4.47;;;;;;;1.82;82.08;98947.55;1747505;80;20965;-78
2022/11/22 01:04:34;;;;;;;7.65;4.92;;;;;;;1.81;82.09;98953.70;1746561;82;22027;-78
2022/11/22 01:07:01;;;;;;;6.15;4.42;;;;;;;1.83;82.05;98955.73;1721882;82;20887;-77
2022/11/22 01:09:30;;;;;;;7.67;5.00;;;;;;;1.80;81.87;98955.94;1685758;81;21012;-77
2022/11/22 01:11:57;;;;;;;5.08;3.58;;;;;;;1.79;81.87;98958.66;1718160;81;21473;-78
2022/11/22 01:14:24;;;;;;;3.62;2.95;;;;;;;1.79;81.77;98971.67;1731094;81;20943;-77
2022/11/22 01:16:51;;;;;;;3.37;2.70;;;;;;;1.77;81.75;98967.87;1726914;81;22346;-77
2022/11/22 01:19:18;;;;;;;4.95;3.60;;;;;;;1.77;81.66;98963.13;1732709;81;21025;-77
2022/11/22 01:21:46;;;;;;;3.85;3.10;;;;;;;1.75;81.64;98970.21;1714934;81;21432;-76
2022/11/22 01:24:13;;;;;;;3.35;2.80;;;;;;;1.73;81.60;98966.38;1723693;82;21078;-77
2022/11/22 01:26:40;;;;;;;4.67;2.90;;;;;;;1.77;81.62;98973.55;1756428;81;20942;-77
2022/11/22 01:29:07;;;;;;;3.50;3.12;;;;;;;1.76;81.51;98964.91;1752004;81;21839;-78
2022/11/22 01:31:34;;;;;;;5.00;3.85;;;;;;;1.77;81.48;98973.08;1746628;81;20950;-77
2022/11/22 01:34:00;;;;;;;3.25;2.92;;;;;;;1.79;81.42;98975.57;1709584;83;20997;-76
2022/11/22 01:36:29;;;;;;;3.67;3.27;;;;;;;1.75;81.33;98980.63;1697642;82;21043;-74
2022/11/22 01:38:56;;;;;;;4.05;3.65;;;;;;;1.73;81.30;98982.83;1736926;81;21059;-76
2022/11/22 01:41:25;;;;;;;3.12;2.70;;;;;;;1.73;81.29;98984.13;1677215;84;21026;-76
2022/11/22 01:43:53;;;;;;;3.72;2.90;;;;;;;1.71;81.15;98987.31;1721768;82;21056;-76
2022/11/22 01:46:32;;;;;;;4.90;3.87;;;;;;;1.69;81.05;98986.58;1728260;81;21453;-75
2022/11/22 01:49:12;;;;;;;4.12;3.30;;;;;;;1.69;81.07;98993.56;1732497;81;21048;-75
2022/11/22 01:51:43;;;;;;;4.10;3.27;;;;;;;1.70;81.07;98999.12;1725858;81;21083;-75
2022/11/22 01:54:14;;;;;;;3.75;3.00;;;;;;;1.69;80.90;98994.86;1731313;81;22627;-75
2022/11/22 01:56:43;;;;;;;4.45;3.00;;;;;;;1.65;80.80;98985.13;1730467;81;21044;-75
2022/11/22 01:59:13;;;;;;;3.42;2.85;;;;;;;1.64;80.81;98987.37;1709621;82;20993;-75
2022/11/22 02:01:40;;;;;;;4.25;2.80;;;;;;;1.66;80.77;98981.59;1732637;80;21028;-74
2022/11/22 02:04:09;;;;;;;3.30;2.90;;;;;;;1.66;80.74;98982.89;1726735;81;21085;-75
2022/11/22 02:06:57;;;;;;;3.55;2.37;;;;;;;1.64;80.57;98980.86;1720929;81;21952;-75
2022/11/22 02:09:24;;;;;;;3.22;2.67;;;;;;;1.62;80.61;98984.00;1722106;81;20989;-75
2022/11/22 02:11:53;;;;;;;3.60;3.02;;;;;;;1.61;80.62;98987.55;1708684;82;21061;-75
2022/11/22 02:14:24;;;;;;;4.17;2.83;;;;;;;1.60;80.62;98987.18;1719905;82;21893;-74
2022/11/22 02:16:52;;;;;;;3.90;2.98;;;;;;;1.58;80.56;99000.77;1734807;81;21151;-74
2022/11/22 02:19:41;;;;;;;3.95;2.55;;;;;;;1.57;80.51;99005.60;1734831;81;22475;-74
2022/11/22 02:22:45;;;;;;;3.95;3.00;;;;;;;1.56;80.46;99007.84;1729750;81;20941;-74
2022/11/22 02:25:27;;;;;;;4.20;3.05;;;;;;;1.55;80.48;99012.68;1732784;81;21504;-74
2022/11/22 02:27:54;;;;;;;3.25;2.90;;;;;;;1.56;80.48;99022.62;1730307;81;21425;-75
2022/11/22 02:30:21;;;;;;;4.72;3.27;;;;;;;1.56;80.51;99029.96;1735878;81;21122;-74
2022/11/22 02:32:47;;;;;;;4.50;3.22;;;;;;;1.58;80.46;99035.06;1726756;81;21946;-75
2022/11/22 02:35:22;;;;;;;3.33;3.02;;;;;;;1.58;80.40;99031.99;1737451;81;21203;-75
2022/11/22 02:38:03;;;;;;;3.98;3.00;;;;;;;1.59;80.36;99046.67;1692302;83;21043;-75
2022/11/22 02:40:41;;;;;;;3.80;3.45;;;;;;;1.58;80.24;99046.77;1705184;82;21548;-74
2022/11/22 02:43:11;;;;;;;5.65;3.47;;;;;;;1.55;80.16;99043.91;1733323;81;20997;-75
2022/11/22 02:45:37;;;;;;;6.28;4.08;;;;;;;1.57;80.21;99055.52;1733575;81;21879;-75
2022/11/22 02:48:10;;;;;;;4.78;3.65;;;;;;;1.57;80.14;99055.05;1712106;82;20949;-75
2022/11/22 02:50:37;;;;;;;4.92;3.50;;;;;;;1.59;80.13;99064.05;1706191;83;21058;-76
2022/11/22 02:53:04;;;;;;;5.53;4.10;;;;;;;1.59;80.13;99064.89;1738257;81;21169;-73
2022/11/22 02:55:31;;;;;;;5.75;4.60;;;;;;;1.60;80.12;99067.02;1752076;80;20983;-73
2022/11/22 02:57:58;;;;;;;5.90;4.65;;;;;;;1.59;80.12;99065.35;1758019;80;22536;-73
2022/11/22 03:00:24;;;;;;;5.58;4.78;;;;;;;1.62;80.18;99062.55;1745272;80;21414;-73
2022/11/22 03:02:52;;;;;;;3.52;3.10;;;;;;;1.62;80.12;99065.98;1734007;81;21016;-73
2022/11/22 03:05:19;;;;;;;5.35;3.77;;;;;;;1.62;79.91;99075.09;1732020;81;21032;-74
2022/11/22 03:07:49;;;;;;;4.20;3.42;;;;;;;1.58;79.84;99075.39;1693330;83;22001;-74
2022/11/22 03:10:16;;;;;;;4.10;3.70;;;;;;;1.58;79.84;99078.00;1656421;85;22038;-74
2022/11/22 03:12:43;;;;;;;8.03;5.28;;;;;;;1.57;79.78;99082.84;1687604;83;20877;-74
2022/11/22 03:15:10;;;;;;;7.12;5.37;;;;;;;1.56;79.74;99080.70;1675708;83;21520;-73
2022/11/22 03:17:37;;;;;;;6.65;4.90;;;;;;;1.57;79.72;99078.47;1661118;83;21567;-73
2022/11/22 03:20:07;;;;;;;8.60;5.95;;;;;;;1.58;79.67;99074.09;1716942;81;21035;-74
2022/11/22 03:22:34;;;;;;;6.30;4.78;;;;;;;1.59;79.62;99082.27;1695026;81;21992;-73
2022/11/22 03:25:00;;;;;;;5.33;4.50;;;;;;;1.61;79.63;99076.50;1729661;80;21053;-74
2022/11/22 03:27:26;;;;;;;4.20;3.40;;;;;;;1.60;79.52;99084.77;1720245;81;21379;-73
2022/11/22 03:29:53;;;;;;;3.75;3.37;;;;;;;1.56;79.29;99082.47;1729601;80;21057;-73
2022/11/22 03:32:19;;;;;;;3.95;3.40;;;;;;;1.51;79.21;99082.75;1725095;81;21036;-73
2022/11/22 03:34:46;;;;;;;4.65;3.87;;;;;;;1.49;79.13;99079.41;1735910;81;21788;-75
2022/11/22 03:37:14;;;;;;;3.98;3.10;;;;;;;1.47;79.01;99085.66;1732193;80;20942;-74
2022/11/22 03:39:41;;;;;;;5.35;3.37;;;;;;;1.45;78.98;99080.55;1728265;80;20982;-75
2022/11/22 03:42:08;;;;;;;3.65;3.05;;;;;;;1.44;78.88;99095.30;1734852;81;21172;-75
2022/11/22 03:44:35;;;;;;;3.62;3.15;;;;;;;1.41;78.65;99097.27;1733722;81;20997;-76
2022/11/22 03:47:01;;;;;;;4.60;3.65;;;;;;;1.38;78.65;99094.86;1718835;82;21865;-75
2022/11/22 03:49:28;;;;;;;3.55;2.92;;;;;;;1.39;78.60;99097.36;1724928;81;21474;-75
2022/11/22 03:51:55;;;;;;;3.02;2.72;;;;;;;1.35;78.27;99098.50;1745554;81;20996;-75
2022/11/22 03:54:21;;;;;;;2.70;2.50;;;;;;;1.32;78.16;99096.53;1727814;81;20992;-76
2022/11/22 03:56:48;;;;;;;3.30;2.70;;;;;;;1.32;78.10;99103.03;1728381;81;21627;-75
2022/11/22 03:59:15;;;;;;;2.50;2.30;;;;;;;1.31;77.92;99103.97;1735692;81;21954;-76
2022/11/22 04:01:42;;;;;;;2.90;2.35;;;;;;;1.26;77.56;99097.77;1726402;81;21043;-77
2022/11/22 04:04:10;;;;;;;2.67;2.35;;;;;;;1.21;77.36;99098.50;1728226;82;21450;-77
2022/11/22 04:06:37;;;;;;;2.85;2.55;;;;;;;1.15;77.15;99105.36;1731567;81;20968;-77
2022/11/22 04:09:04;;;;;;;2.85;2.55;;;;;;;1.12;77.06;99110.30;1733949;81;21182;-76
2022/11/22 04:11:31;;;;;;;2.87;2.58;;;;;;;1.10;77.03;99109.55;1745917;81;21687;-74
2022/11/22 04:16:43;;;;;;;3.00;2.70;;;;;;;1.05;76.54;99131.55;1736361;82;20989;-75
2022/11/22 04:19:10;;;;;;;3.30;2.50;;;;;;;0.99;76.30;99144.94;1705459;82;21072;-75
2022/11/22 04:21:38;;;;;;;3.40;3.00;;;;;;;0.96;76.25;99147.70;1724034;81;21095;-75
2022/11/22 04:26:52;;;;;;;3.92;2.87;;;;;;;0.92;76.30;99166.55;1725962;81;21052;-76
2022/11/22 04:29:19;;;;;;;5.17;3.60;;;;;;;0.92;76.35;99167.86;1737977;81;21443;-76
2022/11/22 04:34:32;;;;;;;2.50;2.30;;;;;;;0.90;76.14;99174.08;1728598;81;21083;-76
2022/11/22 04:36:59;;;;;;;3.33;2.20;;;;;;;0.83;75.79;99190.48;1725438;81;21829;-76
2022/11/22 04:39:26;;;;;;;2.65;2.22;;;;;;;0.77;75.59;99193.44;1725164;81;21013;-78
2022/11/22 04:44:41;;;;;;;3.22;2.50;;;;;;;0.73;75.45;99197.15;1740993;80;21528;-79
2022/11/22 04:47:11;;;;;;;5.55;4.08;;;;;;;0.72;75.27;99211.07;1735726;81;20984;-79
2022/11/22 04:49:37;;;;;;;3.83;2.80;;;;;;;0.68;75.13;99216.92;1744768;81;22018;-77
2022/11/22 04:54:49;;;;;;;2.30;2.10;;;;;;;0.63;74.96;99223.29;1741819;80;21107;-77
2022/11/22 04:57:16;;;;;;;1.95;1.75;;;;;;;0.61;75.02;99222.09;1729344;81;21012;-76
2022/11/22 04:59:43;;;;;;;2.50;2.10;;;;;;;0.62;74.97;99225.52;1749443;81;21030;-76
2022/11/22 05:02:09;;;;;;;2.52;2.10;;;;;;;0.63;74.86;99227.19;1741973;81;23332;-76
2022/11/22 05:04:35;;;;;;;3.10;2.40;;;;;;;0.64;74.91;99232.76;1743280;81;20850;-76
2022/11/22 05:07:03;;;;;;;2.80;2.30;;;;;;;0.67;74.79;99237.30;1732050;81;21026;-76
2022/11/22 05:09:30;;;;;;;2.40;2.00;;;;;;;0.67;74.87;99237.77;1705526;81;21692;-76
2022/11/22 05:11:57;;;;;;;2.77;2.47;;;;;;;0.70;74.86;99238.92;1733449;81;21104;-76
2022/11/22 05:14:24;;;;;;;3.85;3.42;;;;;;;0.70;74.85;99248.02;1729907;81;22597;-76
2022/11/22 05:16:51;;;;;;;3.47;2.90;;;;;;;0.69;74.86;99252.84;1740725;81;21423;-78
2022/11/22 05:19:17;;;;;;;5.85;4.10;;;;;;;0.69;74.84;99239.84;1734181;81;20962;-79
2022/11/22 05:21:44;;;;;;;6.20;4.40;;;;;;;0.66;74.86;99245.20;1728833;81;20981;-76
2022/11/22 05:24:10;;;;;;;8.98;5.30;;;;;;;0.62;74.94;99259.30;1743593;81;21047;-76
2022/11/22 05:26:38;;;;;;;8.33;5.45;;;;;;;0.59;74.94;99264.22;1730092;81;21922;-74
2022/11/22 05:29:07;;;;;;;6.47;3.98;;;;;;;0.57;75.02;99259.08;1736202;81;21053;-75
2022/11/22 05:31:35;;;;;;;4.80;3.27;;;;;;;0.59;75.06;99256.42;1732470;81;21083;-75
2022/11/22 05:34:02;;;;;;;5.30;3.67;;;;;;;0.60;74.99;99255.48;1734831;81;21031;-77
2022/11/22 05:36:31;;;;;;;4.05;3.37;;;;;;;0.60;74.91;99256.79;1733327;81;21263;-76
2022/11/22 05:38:58;;;;;;;3.83;3.20;;;;;;;0.60;74.84;99257.25;1732194;81;22716;-75
2022/11/22 05:41:25;;;;;;;4.03;3.20;;;;;;;0.55;74.90;99257.03;1730989;81;21032;-76
2022/11/22 05:43:55;;;;;;;4.05;3.42;;;;;;;0.56;74.95;99247.48;1692752;81;20976;-76
2022/11/22 05:46:26;;;;;;;4.53;3.20;;;;;;;0.53;74.94;99248.49;1733010;81;21005;-75
2022/11/22 05:48:55;;;;;;;3.70;3.33;;;;;;;0.52;74.88;99249.88;1745309;81;21000;-75
2022/11/22 05:51:25;;;;;;;7.37;5.67;;;;;;;0.52;74.96;99253.78;1735791;81;21891;-76
2022/11/22 05:53:52;;;;;;;5.15;3.85;;;;;;;0.54;75.04;99261.02;1726770;81;21289;-75
2022/11/22 05:56:22;;;;;;;5.80;4.62;;;;;;;0.57;75.05;99259.54;1694234;82;21064;-75
2022/11/22 05:58:49;;;;;;;5.08;4.50;;;;;;;0.55;75.08;99266.12;1673537;83;21013;-76
2022/11/22 06:01:18;;;;;;;5.95;4.78;;;;;;;0.59;75.14;99271.17;1680961;83;21431;-76
2022/11/22 06:03:45;;;;;;;7.15;5.25;;;;;;;0.59;75.19;99264.67;1687337;83;21797;-75
2022/11/22 06:06:12;;;;;;;7.60;5.72;;;;;;;0.59;75.20;99268.58;1635475;85;21045;-75
2022/11/22 06:08:42;;;;;;;7.62;5.85;;;;;;;0.60;75.19;99298.36;1707959;82;20947;-76
2022/11/22 06:11:19;;;;;;;6.75;5.45;;;;;;;0.61;75.27;99304.40;1669561;82;21024;-77
2022/11/22 06:13:48;;;;;;;5.87;4.55;;;;;;;0.65;75.35;99311.92;1682521;84;20966;-75
2022/11/22 06:16:16;;;;;;;4.80;3.90;;;;;;;0.70;75.38;99314.28;1680307;83;22531;-76
2022/11/22 06:18:43;;;;;;;4.87;4.33;;;;;;;0.71;75.30;99309.45;1691263;83;21021;-76
2022/11/22 06:21:12;;;;;;;4.83;4.22;;;;;;;0.66;75.21;99312.30;1695001;82;21618;-76
2022/11/22 06:23:38;;;;;;;5.47;4.62;;;;;;;0.61;75.12;99309.13;1686179;83;21017;-77
2022/11/22 06:26:08;;;;;;;4.65;4.05;;;;;;;0.57;75.19;99321.44;1683878;83;20970;-76
2022/11/22 06:28:37;;;;;;;5.08;4.37;;;;;;;0.52;75.03;99303.14;1670344;83;22602;-76
2022/11/22 06:31:07;;;;;;;6.15;4.60;;;;;;;0.49;75.14;99302.86;1683569;83;21062;-75
2022/11/22 06:33:34;;;;;;;6.87;5.28;;;;;;;0.47;75.07;99300.78;1689700;84;20966;-78
2022/11/22 06:36:17;;;;;;;6.35;4.95;;;;;;;0.45;75.16;99306.53;1695765;83;21357;-77
2022/11/22 06:38:44;;;;;;;5.58;4.37;;;;;;;0.48;75.21;99310.71;1685591;84;21017;-75
2022/11/22 06:41:18;;;;;;;8.85;5.95;;;;;;;0.47;75.06;99311.64;1686976;83;21944;-76
2022/11/22 06:43:47;;;;;;;6.25;5.40;;;;;;;0.47;75.08;99305.98;1647693;85;28133;-76
2022/11/22 06:46:15;;;;;;;12.58;8.63;;;;;;;0.47;75.05;99298.19;1671885;82;21080;-75
2022/11/22 06:48:43;;;;;;;8.93;6.25;;;;;;;0.47;75.14;99306.44;1697010;83;20995;-77
2022/11/22 06:51:18;;;;;;;6.45;5.20;;;;;;;0.50;75.23;99317.98;1700455;83;21561;-77
2022/11/22 06:53:45;;;;;;;5.78;5.15;;;;;;;0.51;75.26;99323.55;1694089;83;22629;-76
2022/11/22 06:56:19;;;;;;;8.48;6.50;;;;;;;0.51;75.27;99323.55;1693782;83;21124;-76
2022/11/22 06:58:47;;;;;;;7.20;6.10;;;;;;;0.51;75.20;99330.88;1725139;81;21036;-77
2022/11/22 07:01:23;;;;;;;6.17;5.35;;;;;;;0.53;75.26;99319.94;1734743;81;21121;-76
2022/11/22 07:03:53;;;;;;;7.08;6.37;;;;;;;0.56;75.27;99319.77;1734622;80;21139;-75
2022/11/22 07:06:19;;;;;;;6.78;5.47;;;;;;;0.60;75.26;99318.31;1731702;80;21782;-75
2022/11/22 07:08:46;;;;;;;11.93;10.75;;;;;;;0.60;75.20;99312.66;1712856;82;20989;-76
2022/11/22 07:11:20;;;;;;;8.95;6.22;;;;;;;0.60;75.08;99317.85;1734929;80;21000;-77
2022/11/22 07:13:47;;;;;;;6.90;6.20;;;;;;;0.59;74.97;99329.63;1736022;81;21483;-74
2022/11/22 07:16:18;;;;;;;7.87;6.50;;;;;;;0.59;74.92;99336.97;1731543;81;20941;-78
2022/11/22 07:18:44;;;;;;;8.60;7.60;;;;;;;0.61;74.98;99338.17;1734176;80;21906;-79
2022/11/22 07:21:13;;;;;;;14.78;12.90;;;;;;;0.61;74.94;99337.72;1729688;81;21029;-78
2022/11/22 07:23:43;;;;;;;14.70;11.03;;;;;;;0.63;74.78;99338.92;1731566;80;21040;-76
2022/11/22 07:26:12;;;;;;;15.55;10.50;;;;;;;0.61;74.59;99342.07;1732004;81;21032;-74
2022/11/22 07:28:40;;;;;;;15.15;11.20;;;;;;;0.59;74.57;99342.62;1733031;80;21032;-71
2022/11/22 07:31:09;;;;;;;15.35;10.68;;;;;;;0.58;74.62;99340.49;1731194;81;22505;-72
2022/11/22 07:33:37;;;;;;;13.20;9.53;;;;;;;0.60;74.51;99340.40;1733546;81;20953;-71
2022/11/22 07:36:07;;;;;;;10.08;7.97;;;;;;;0.53;74.49;99339.42;1728311;80;21489;-72
2022/11/22 07:38:35;;;;;;;13.20;9.55;;;;;;;0.51;74.45;99330.05;1732740;80;21410;-71
2022/11/22 07:41:02;;;;;;;7.28;6.40;;;;;;;0.53;74.54;99332.09;1733345;81;21052;-73
2022/11/22 07:43:29;;;;;;;7.47;6.05;;;;;;;0.54;74.42;99338.97;1736475;80;21956;-73
2022/11/22 07:46:03;;;;;;;9.93;8.10;;;;;;;0.52;74.47;99327.83;1730493;81;21024;-72
2022/11/22 07:48:31;;;;;;;6.47;5.67;;;;;;;0.52;74.40;99336.45;1725845;80;21009;-73
2022/11/22 07:51:06;;;;;;;23.92;17.15;;;;;;;0.52;74.26;99344.25;1736283;81;20961;-73
2022/11/22 07:53:33;;;;;;;20.05;14.87;;;;;;;0.49;74.21;99335.80;1734761;81;21504;-74
2022/11/22 07:56:04;;;;;;;19.37;15.85;;;;;;;0.47;74.04;99337.61;1709929;82;22488;-73
2022/11/22 07:58:32;;;;;;;10.58;9.48;;;;;;;0.41;73.76;99338.80;1728457;81;20977;-71
2022/11/22 08:01:10;;;;;;;12.95;9.78;;;;;;;0.38;73.82;99345.44;1708169;81;20972;-72
2022/11/22 08:03:37;;;;;;;11.73;8.13;;;;;;;0.39;73.94;99333.33;1728365;81;21308;-72
2022/11/22 08:06:06;;;;;;;10.85;7.55;;;;;;;0.40;73.96;99340.19;1742821;80;21506;-75
2022/11/22 08:08:34;;;;;;;9.80;6.70;;;;;;;0.41;73.96;99334.91;1731152;81;21830;-74
2022/11/22 08:11:02;;;;;;;8.33;6.58;;;;;;;0.37;73.90;99337.73;1728957;81;21052;-72
2022/11/22 08:13:28;;;;;;;8.78;6.33;;;;;;;0.36;73.97;99338.20;1738886;81;20925;-73
2022/11/22 08:16:04;;;;;;;7.03;6.33;;;;;;;0.34;74.04;99336.16;1732601;80;21393;-72
2022/11/22 08:18:33;;;;;;;7.58;6.40;;;;;;;0.32;74.05;99341.90;1713011;81;21135;-72
2022/11/22 08:21:10;;;;;;;5.47;4.70;;;;;;;0.37;74.10;99346.37;1738444;81;21946;-71
2022/11/22 08:23:37;;;;;;;6.33;5.58;;;;;;;0.37;73.17;99349.42;1733089;81;21037;-73
2022/11/22 08:26:05;;;;;;;12.13;9.93;;;;;;;0.37;73.38;99354.16;1725956;81;20988;-72
2022/11/22 08:28:32;;;;;;;11.45;9.05;;;;;;;0.40;73.38;99355.31;1731029;81;21270;-73
2022/11/22 08:31:00;;;;;;;7.35;6.55;;;;;;;0.39;73.26;99354.94;1730565;81;21352;-72
2022/11/22 08:33:27;;;;;;;8.25;6.28;;;;;;;0.42;73.18;99361.26;1731970;81;21882;-71
2022/11/22 08:35:54;;;;;;;7.12;6.40;;;;;;;0.44;73.25;99361.17;1721365;81;21079;-70
2022/11/22 08:38:20;;;;;;;7.35;6.33;;;;;;;0.48;73.38;99366.56;1693367;82;21067;-72
2022/11/22 08:40:46;;;;;;;7.25;5.72;;;;;;;0.54;73.40;99357.15;1737556;81;21069;-75
2022/11/22 08:43:13;;;;;;;6.78;5.55;;;;;;;0.57;73.39;99369.50;1727756;81;21013;-73
2022/11/22 08:45:40;;;;;;;6.80;5.78;;;;;;;0.57;73.39;99377.30;1727127;82;21961;-73
2022/11/22 08:48:06;;;;;;;7.55;5.40;;;;;;;0.54;73.42;99387.87;1730403;81;21046;-72
2022/11/22 08:50:33;;;;;;;6.65;5.47;;;;;;;0.52;73.40;99391.48;1729290;81;21045;-73
2022/11/22 08:53:00;;;;;;;8.05;6.25;;;;;;;0.49;73.42;99405.48;1731799;81;21085;-72
2022/11/22 08:55:27;;;;;;;12.30;7.80;;;;;;;0.47;73.48;99409.89;1743321;81;21087;-75
2022/11/22 08:57:59;;;;;;;9.85;7.30;;;;;;;0.44;73.68;99404.03;1708604;82;21764;-74
2022/11/22 09:00:25;;;;;;;8.58;7.05;;;;;;;0.44;73.71;99392.34;1695485;83;21555;-75
2022/11/22 09:02:52;;;;;;;8.05;7.10;;;;;;;0.45;73.80;99381.03;1688982;82;21042;-73
2022/11/22 09:05:18;;;;;;;12.50;10.15;;;;;;;0.50;73.95;99381.17;1693756;83;21059;-74
2022/11/22 09:07:47;;;;;;;7.80;6.60;;;;;;;0.57;74.06;99392.89;1694259;83;21050;-73
2022/11/22 09:10:14;;;;;;;7.95;5.90;;;;;;;0.63;73.91;99398.69;1695398;83;21957;-73
2022/11/22 09:12:46;;;;;;;7.72;5.90;;;;;;;0.63;73.91;99407.78;1699211;83;21020;-74
2022/11/22 09:15:14;;;;;;;7.83;5.75;;;;;;;0.64;73.87;99405.56;1688349;83;21057;-74
2022/11/22 09:17:42;;;;;;;8.33;6.80;;;;;;;0.72;73.79;99400.33;1698837;83;21037;-73
2022/11/22 09:20:10;;;;;;;8.35;6.20;;;;;;;0.73;73.58;99399.86;1692186;82;20958;-73
2022/11/22 09:22:37;;;;;;;8.43;6.42;;;;;;;0.71;73.37;99400.42;1691739;83;21497;-74
2022/11/22 09:25:04;;;;;;;6.08;5.40;;;;;;;0.68;73.36;99397.53;1711440;83;20978;-80
2022/11/22 09:27:32;;;;;;;6.53;5.83;;;;;;;0.68;73.19;99396.70;1706390;83;21562;-78
2022/11/22 09:30:01;;;;;;;7.45;6.42;;;;;;;0.66;73.32;99385.06;1690532;83;21469;-71
2022/11/22 09:32:27;;;;;;;7.80;5.92;;;;;;;0.71;73.39;99388.72;1696695;83;21048;-72
2022/11/22 09:34:55;;;;;;;6.60;5.58;;;;;;;0.76;73.36;99394.03;1699238;83;21933;-72
2022/11/22 09:37:21;;;;;;;7.65;5.37;;;;;;;0.77;73.20;99390.53;1708296;83;21044;-72
2022/11/22 09:39:49;;;;;;;7.97;6.28;;;;;;;0.73;72.98;99384.27;1717079;83;21478;-75
2022/11/22 09:42:30;;;;;;;6.65;5.67;;;;;;;0.68;72.94;99390.20;1709859;82;21586;-73
2022/11/22 09:45:15;;;;;;;5.65;5.05;;;;;;;0.62;72.82;99394.42;1709632;82;21087;-72
2022/11/22 09:47:54;;;;;;;6.05;5.33;;;;;;;0.56;72.87;99389.91;1699913;82;21782;-69
2022/11/22 09:50:44;;;;;;;6.25;5.55;;;;;;;0.56;72.90;99382.12;1695144;82;21176;-75
2022/11/22 09:53:21;;;;;;;6.25;5.47;;;;;;;0.54;72.80;99372.74;1695927;82;21598;-74
2022/11/22 09:55:59;;;;;;;6.87;5.58;;;;;;;0.53;72.79;99383.59;1695201;82;21063;-76
2022/11/22 09:58:39;;;;;;;8.65;7.12;;;;;;;0.55;72.79;99394.73;1726710;82;21041;-72
2022/11/22 10:01:27;;;;;;;18.48;12.43;;;;;;;0.58;72.56;99389.86;1723048;81;22307;-73
2022/11/22 10:04:10;;;;;;;40.25;24.82;;;;;;;0.58;72.64;99396.35;1727250;81;21503;-74
2022/11/22 10:06:41;;;;;;;13.60;9.40;;;;;;;0.62;72.44;99395.25;1724672;81;21457;-74
2022/11/22 10:09:42;;;;;;;5.75;5.03;;;;;;;0.67;72.42;99406.22;1733281;82;21049;-72
2022/11/22 10:12:32;;;;;;;9.13;7.15;;;;;;;0.70;72.01;99402.18;1699858;81;21087;-70
2022/11/22 10:15:36;;;;;;;9.18;7.10;;;;;;;0.70;71.75;99397.44;1725779;82;22635;-74
2022/11/22 10:18:10;;;;;;;11.75;7.85;;;;;;;0.68;71.65;99407.09;1693260;81;21063;-75
2022/11/22 10:20:40;;;;;;;10.68;7.75;;;;;;;0.71;71.72;99403.85;1717467;82;21019;-75
2022/11/22 10:23:22;;;;;;;15.20;9.35;;;;;;;0.73;71.55;99385.11;1746037;81;21064;-74
2022/11/22 10:26:23;;;;;;;9.10;7.35;;;;;;;0.76;71.60;99382.33;1725074;81;21643;-74
2022/11/22 10:29:20;;;;;;;8.98;7.65;;;;;;;0.79;71.51;99379.58;1721013;81;22578;-74
2022/11/22 10:32:13;;;;;;;10.48;8.48;;;;;;;0.79;71.32;99383.48;1722641;81;21099;-74
2022/11/22 10:35:15;;;;;;;8.70;7.17;;;;;;;0.77;71.23;99384.47;1732179;81;20996;-76
2022/11/22 10:38:12;;;;;;;6.90;6.00;;;;;;;0.82;71.37;99385.06;1737666;81;21078;-74
2022/11/22 10:40:54;;;;;;;14.28;10.63;;;;;;;0.86;71.25;99380.89;1658950;84;21079;-75
2022/11/22 10:43:52;;;;;;;7.58;6.22;;;;;;;0.88;71.08;99376.94;1699042;83;21846;-75
2022/11/22 10:47:01;;;;;;;7.70;6.37;;;;;;;0.85;70.93;99383.59;1709470;82;20993;-75
2022/11/22 10:49:39;;;;;;;8.40;7.10;;;;;;;0.83;70.92;99379.78;1729359;81;21005;-75
2022/11/22 10:52:30;;;;;;;7.72;6.33;;;;;;;0.85;70.92;99378.39;1714693;82;20998;-75
2022/11/22 10:55:21;;;;;;;10.13;7.85;;;;;;;0.86;70.85;99371.80;1737578;81;21012;-76
2022/11/22 10:58:05;;;;;;;9.08;7.50;;;;;;;0.85;70.78;99364.92;1736188;81;21825;-75
2022/11/22 11:00:32;;;;;;;10.43;8.48;;;;;;;0.85;70.80;99374.48;1720675;83;21081;-73
2022/11/22 11:03:19;;;;;;;7.95;7.08;;;;;;;0.86;70.92;99384.80;1691721;82;21015;-73
2022/11/22 11:06:10;;;;;;;9.05;7.50;;;;;;;0.89;70.79;99397.27;1766975;81;21718;-72
2022/11/22 11:08:50;;;;;;;8.98;7.80;;;;;;;0.89;70.88;99392.91;1711335;83;20957;-71
2022/11/22 11:11:17;;;;;;;8.05;6.60;;;;;;;0.92;70.96;99397.09;1744644;81;22064;-71
2022/11/22 11:13:46;;;;;;;7.60;5.70;;;;;;;0.94;70.96;99399.98;1706796;81;21005;-75
2022/11/22 11:16:18;;;;;;;6.78;6.00;;;;;;;0.97;70.87;99396.39;1711653;82;21028;-72
2022/11/22 11:19:08;;;;;;;6.95;6.22;;;;;;;0.96;70.74;99407.22;1750842;81;21016;-74
2022/11/22 11:21:35;;;;;;;8.13;6.10;;;;;;;0.94;70.70;99409.08;1700299;80;21095;-74
2022/11/22 11:24:02;;;;;;;9.23;7.20;;;;;;;0.90;70.52;99403.69;1743585;81;21890;-73
2022/11/22 11:26:34;;;;;;;7.50;6.70;;;;;;;0.84;70.46;99404.84;1716972;82;21045;-73
2022/11/22 11:29:24;;;;;;;7.60;6.80;;;;;;;0.84;70.41;99404.01;1734015;81;21025;-72
2022/11/22 11:32:19;;;;;;;9.40;7.60;;;;;;;0.81;70.60;99405.02;1735310;81;21185;-74
2022/11/22 11:35:00;;;;;;;9.98;7.90;;;;;;;0.83;70.53;99423.97;1741755;81;21052;-74
2022/11/22 11:37:36;;;;;;;10.72;8.83;;;;;;;0.85;70.65;99423.88;1710937;82;22370;-74
2022/11/22 11:40:04;;;;;;;10.60;8.60;;;;;;;0.85;70.74;99419.98;1736748;81;21499;-76
2022/11/22 11:42:33;;;;;;;7.37;6.35;;;;;;;0.88;70.83;99412.50;1691439;81;21502;-74
2022/11/22 11:45:27;;;;;;;9.08;7.33;;;;;;;0.89;70.77;99423.27;1746670;81;21626;-72
2022/11/22 11:47:55;;;;;;;8.43;7.45;;;;;;;0.89;70.85;99416.31;1707457;81;21499;-73
2022/11/22 11:50:25;;;;;;;11.55;9.85;;;;;;;0.92;70.88;99419.19;1712409;81;21845;-76
2022/11/22 11:53:04;;;;;;;10.30;8.75;;;;;;;0.98;70.97;99410.60;1730512;81;21091;-74
2022/11/22 11:55:34;;;;;;;10.00;8.33;;;;;;;1.02;71.00;99410.80;1710549;81;21102;-76
2022/11/22 11:58:03;;;;;;;9.23;7.78;;;;;;;1.04;70.71;99410.24;1693744;82;21054;-73
2022/11/22 12:00:38;;;;;;;10.35;7.95;;;;;;;1.06;70.69;99411.45;1671733;83;21531;-74
2022/11/22 12:03:06;;;;;;;8.45;7.03;;;;;;;1.08;70.68;99420.03;1727148;81;21825;-73
2022/11/22 12:05:33;;;;;;;8.58;7.45;;;;;;;1.09;70.57;99427.74;1726857;81;21024;-75
2022/11/22 12:08:01;;;;;;;8.00;6.97;;;;;;;1.10;70.59;99424.22;1723798;81;21040;-76
2022/11/22 12:10:48;;;;;;;9.43;6.70;;;;;;;1.11;70.42;99414.65;1723999;81;21476;-77